Time;durP1;ratioP1;P1;durP2;ratioP2;P2;SDS_P1;SDS_P2;PMS_P1;PMS_P2;Temp;Humidity;BMP_temperature;BMP_pressure;BME280_temperature;BME280_humidity;BME280_pressure;Samples;Min_cycle;Max_cycle;Signal;HPM_P1;HPM_P2
2021/11/05 00:00:57;;;;;;;9.65;3.78;;;;;;;;;;5044020;28;20051;-58
2021/11/05 00:03:23;;;;;;;9.50;4.30;;;;;;;;;;5039794;28;20114;-57
2021/11/05 00:05:52;;;;;;;7.72;3.60;;;;;;;;;;5042685;28;20060;-57
2021/11/05 00:08:18;;;;;;;;;;;;;;;;;;5039785;28;20041;-57
2021/11/05 00:10:45;;;;;;;9.45;3.13;;;;;;;;;;5059816;28;20371;-58
2021/11/05 00:13:12;;;;;;;10.77;4.53;;;;;;;;;;5052261;28;20047;-58
2021/11/05 00:15:39;;;;;;;9.50;4.95;;;;;;;;;;5060611;28;20052;-57
2021/11/05 00:18:05;;;;;;;13.93;6.65;;;;;;;;;;5040242;28;20056;-58
2021/11/05 00:20:33;;;;;;;15.43;6.60;;;;;;;;;;5025641;28;20044;-57
2021/11/05 00:23:01;;;;;;;15.32;6.10;;;;;;;;;;5032500;28;20125;-58
2021/11/05 00:25:27;;;;;;;9.18;3.83;;;;;;;;;;5043942;28;20037;-57
2021/11/05 00:27:54;;;;;;;8.95;3.67;;;;;;;;;;5025999;28;20066;-58
2021/11/05 00:30:21;;;;;;;12.30;4.18;;;;;;;;;;5042756;28;20043;-55
2021/11/05 00:32:48;;;;;;;10.63;4.43;;;;;;;;;;5046140;28;20052;-56
2021/11/05 00:35:15;;;;;;;17.60;4.40;;;;;;;;;;5028517;28;20049;-55
2021/11/05 00:37:42;;;;;;;9.90;4.20;;;;;;;;;;5026766;28;20029;-57
2021/11/05 00:40:10;;;;;;;8.63;3.80;;;;;;;;;;5023959;28;20061;-55
2021/11/05 00:42:37;;;;;;;9.38;3.92;;;;;;;;;;5025727;28;20053;-56
2021/11/05 00:45:04;;;;;;;10.65;4.05;;;;;;;;;;5018676;28;20038;-58
2021/11/05 00:47:31;;;;;;;9.02;3.35;;;;;;;;;;5023728;28;20046;-59
2021/11/05 00:49:57;;;;;;;10.90;3.85;;;;;;;;;;5021320;28;20037;-58
2021/11/05 00:52:24;;;;;;;9.93;3.47;;;;;;;;;;5023441;28;20053;-58
2021/11/05 00:54:50;;;;;;;8.02;3.35;;;;;;;;;;5038618;28;20094;-59
2021/11/05 00:57:18;;;;;;;9.68;3.72;;;;;;;;;;5044016;28;20037;-58
2021/11/05 00:59:44;;;;;;;8.38;3.20;;;;;;;;;;5039545;28;20049;-58
2021/11/05 01:02:12;;;;;;;8.95;3.03;;;;;;;;;;5024601;28;20037;-58
2021/11/05 01:04:38;;;;;;;12.98;3.25;;;;;;;;;;5013642;28;20033;-58
2021/11/05 01:07:06;;;;;;;6.97;2.88;;;;;;;;;;5041817;28;20041;-59
2021/11/05 01:09:33;;;;;;;7.88;2.90;;;;;;;;;;5041744;28;20079;-57
2021/11/05 01:11:59;;;;;;;9.35;3.70;;;;;;;;;;5039352;28;20037;-56
2021/11/05 01:14:28;;;;;;;8.75;2.85;;;;;;;;;;5042458;28;20092;-56
2021/11/05 01:16:54;;;;;;;;;;;;;;;;;;5040449;28;20041;-59
2021/11/05 01:19:21;;;;;;;5.00;1.88;;;;;;;;;;5038640;28;19940;-58
2021/11/05 01:21:47;;;;;;;5.70;2.20;;;;;;;;;;5027063;28;20131;-58
2021/11/05 01:24:14;;;;;;;8.10;2.17;;;;;;;;;;5039064;28;20049;-56
2021/11/05 01:26:41;;;;;;;4.82;1.88;;;;;;;;;;5027867;28;20037;-57
2021/11/05 01:29:07;;;;;;;4.72;1.88;;;;;;;;;;5020819;28;20580;-58
2021/11/05 01:31:35;;;;;;;4.85;1.88;;;;;;;;;;5023092;28;20073;-56
2021/11/05 01:34:04;;;;;;;9.68;1.80;;;;;;;;;;5040328;28;20037;-57
2021/11/05 01:36:30;;;;;;;;;;;;;;;;;;5034395;28;20142;-58
2021/11/05 01:38:57;;;;;;;4.15;1.70;;;;;;;;;;5020868;28;19917;-57
2021/11/05 01:41:24;;;;;;;5.07;1.92;;;;;;;;;;5020103;28;20029;-57
2021/11/05 01:43:50;;;;;;;2.78;1.40;;;;;;;;;;5022795;28;20061;-56
2021/11/05 01:46:20;;;;;;;6.40;1.90;;;;;;;;;;5022441;28;20051;-55
2021/11/05 01:48:48;;;;;;;5.47;1.80;;;;;;;;;;5026637;28;20038;-55
2021/11/05 01:51:15;;;;;;;3.50;1.63;;;;;;;;;;5027133;28;20041;-58
2021/11/05 01:53:42;;;;;;;4.15;1.77;;;;;;;;;;5024441;28;20049;-56
2021/11/05 01:56:08;;;;;;;3.67;1.60;;;;;;;;;;5026073;28;20126;-56
2021/11/05 01:58:35;;;;;;;12.05;1.95;;;;;;;;;;5022622;28;20049;-57
2021/11/05 02:01:02;;;;;;;4.82;1.52;;;;;;;;;;5026135;28;20046;-57
2021/11/05 02:03:29;;;;;;;5.13;1.65;;;;;;;;;;5023320;28;20073;-58
2021/11/05 02:06:00;;;;;;;9.20;1.70;;;;;;;;;;5024511;28;20049;-56
2021/11/05 02:08:27;;;;;;;8.27;1.48;;;;;;;;;;5022931;28;20045;-56
2021/11/05 02:10:55;;;;;;;6.18;1.63;;;;;;;;;;5025131;28;20046;-57
2021/11/05 02:13:22;;;;;;;3.72;1.60;;;;;;;;;;5050321;28;20068;-56
2021/11/05 02:15:49;;;;;;;5.45;1.58;;;;;;;;;;5045235;28;20036;-56
2021/11/05 02:18:16;;;;;;;4.07;1.75;;;;;;;;;;5041971;28;20045;-54
2021/11/05 02:20:44;;;;;;;2.97;1.42;;;;;;;;;;5046124;28;20044;-58
2021/11/05 02:23:12;;;;;;;3.17;1.52;;;;;;;;;;5042188;28;20070;-58
2021/11/05 02:25:38;;;;;;;2.85;1.40;;;;;;;;;;5048191;28;20048;-55
2021/11/05 02:28:05;;;;;;;6.18;1.63;;;;;;;;;;5041649;28;20159;-57
2021/11/05 02:30:31;;;;;;;3.75;1.52;;;;;;;;;;5025846;28;20025;-57
2021/11/05 02:32:58;;;;;;;5.47;1.70;;;;;;;;;;5026055;28;20131;-58
2021/11/05 02:35:25;;;;;;;4.38;1.77;;;;;;;;;;5022362;28;20038;-55
2021/11/05 02:37:51;;;;;;;3.42;1.60;;;;;;;;;;5026069;28;20057;-56
2021/11/05 02:40:19;;;;;;;3.55;1.40;;;;;;;;;;5004087;28;20127;-55
2021/11/05 02:42:46;;;;;;;4.60;1.83;;;;;;;;;;5023720;28;20055;-58
2021/11/05 02:45:13;;;;;;;4.95;2.15;;;;;;;;;;5040102;28;20033;-55
2021/11/05 02:47:44;;;;;;;4.13;1.33;;;;;;;;;;5024998;28;20056;-54
2021/11/05 02:50:12;;;;;;;5.30;1.77;;;;;;;;;;5040301;28;20037;-56
2021/11/05 02:52:39;;;;;;;7.15;1.83;;;;;;;;;;5044575;28;20033;-52
2021/11/05 02:55:07;;;;;;;4.68;1.55;;;;;;;;;;5040920;28;20040;-57
2021/11/05 02:57:36;;;;;;;3.90;1.70;;;;;;;;;;5046924;28;20045;-55
2021/11/05 03:00:04;;;;;;;4.65;2.00;;;;;;;;;;5040263;28;20049;-58
2021/11/05 03:02:31;;;;;;;6.38;2.40;;;;;;;;;;5044959;28;20494;-57
2021/11/05 03:04:57;;;;;;;9.35;2.10;;;;;;;;;;5035567;28;20041;-58
2021/11/05 03:07:24;;;;;;;4.32;2.17;;;;;;;;;;5024934;28;20048;-57
2021/11/05 03:09:50;;;;;;;4.35;2.00;;;;;;;;;;5024413;28;20079;-58
2021/11/05 03:12:17;;;;;;;8.63;2.28;;;;;;;;;;5050433;28;20281;-57
2021/11/05 03:14:46;;;;;;;12.10;2.38;;;;;;;;;;5058171;28;20036;-58
2021/11/05 03:17:13;;;;;;;5.47;2.13;;;;;;;;;;5041305;28;20041;-55
2021/11/05 03:19:40;;;;;;;5.53;2.22;;;;;;;;;;5038745;28;20168;-57
2021/11/05 03:22:07;;;;;;;6.32;2.47;;;;;;;;;;5022298;28;20041;-56
2021/11/05 03:24:34;;;;;;;4.18;1.85;;;;;;;;;;5024050;28;20049;-57
2021/11/05 03:27:01;;;;;;;4.78;2.10;;;;;;;;;;5036214;28;20021;-58
2021/11/05 03:29:27;;;;;;;6.28;2.33;;;;;;;;;;5043405;28;20049;-57
2021/11/05 03:31:55;;;;;;;5.57;2.10;;;;;;;;;;5038602;28;20083;-58
2021/11/05 03:34:22;;;;;;;4.70;2.15;;;;;;;;;;5044599;28;20114;-55
2021/11/05 03:36:48;;;;;;;4.65;2.15;;;;;;;;;;5039628;28;20056;-58
2021/11/05 03:39:14;;;;;;;6.80;2.30;;;;;;;;;;5044273;28;20040;-55
2021/11/05 03:41:41;;;;;;;7.45;2.33;;;;;;;;;;5040524;28;20072;-57
2021/11/05 03:44:07;;;;;;;3.88;1.90;;;;;;;;;;5039980;28;20068;-58
2021/11/05 03:46:34;;;;;;;4.63;2.17;;;;;;;;;;5032374;28;20053;-53
2021/11/05 03:49:03;;;;;;;4.78;2.05;;;;;;;;;;5035463;28;20062;-56
2021/11/05 03:51:29;;;;;;;4.80;2.05;;;;;;;;;;5038831;28;20042;-55
2021/11/05 03:53:56;;;;;;;6.85;2.40;;;;;;;;;;5046757;28;20057;-58
2021/11/05 03:56:22;;;;;;;5.55;2.20;;;;;;;;;;5040130;28;20048;-55
2021/11/05 03:58:49;;;;;;;4.55;2.03;;;;;;;;;;5044215;28;20041;-58
2021/11/05 04:01:15;;;;;;;5.97;2.22;;;;;;;;;;5042946;28;20049;-57
2021/11/05 04:03:43;;;;;;;5.05;1.88;;;;;;;;;;5040771;28;20080;-56
2021/11/05 04:06:11;;;;;;;5.00;1.98;;;;;;;;;;5024656;28;20038;-57
2021/11/05 04:08:37;;;;;;;4.57;2.00;;;;;;;;;;5018648;28;20042;-55
2021/11/05 04:11:04;;;;;;;4.55;1.88;;;;;;;;;;5017425;28;20345;-53
2021/11/05 04:13:32;;;;;;;4.47;1.75;;;;;;;;;;5037096;28;20049;-55
2021/11/05 04:15:58;;;;;;;5.60;2.00;;;;;;;;;;5041854;28;20033;-54
2021/11/05 04:18:25;;;;;;;5.15;2.00;;;;;;;;;;5037725;28;20328;-57
2021/11/05 04:20:51;;;;;;;4.18;1.75;;;;;;;;;;5041527;28;20037;-57
2021/11/05 04:23:21;;;;;;;6.70;2.20;;;;;;;;;;5037861;28;20049;-56
2021/11/05 04:25:47;;;;;;;3.63;1.63;;;;;;;;;;5042126;28;20033;-56
2021/11/05 04:28:14;;;;;;;8.63;1.63;;;;;;;;;;5035055;28;20042;-57
2021/11/05 04:30:41;;;;;;;3.85;1.67;;;;;;;;;;5022085;28;20097;-56
2021/11/05 04:33:10;;;;;;;7.03;1.95;;;;;;;;;;5021670;28;20041;-53
2021/11/05 04:35:37;;;;;;;5.28;1.55;;;;;;;;;;5023601;28;20041;-55
2021/11/05 04:38:03;;;;;;;6.57;1.80;;;;;;;;;;5020846;28;20045;-55
2021/11/05 04:40:31;;;;;;;5.68;1.95;;;;;;;;;;5043855;28;20048;-55
2021/11/05 04:42:58;;;;;;;4.50;1.98;;;;;;;;;;5042976;28;20127;-57
2021/11/05 04:45:25;;;;;;;9.25;1.73;;;;;;;;;;5038976;28;20155;-56
2021/11/05 04:47:52;;;;;;;3.88;1.73;;;;;;;;;;5043995;28;20030;-57
2021/11/05 04:50:18;;;;;;;4.82;1.58;;;;;;;;;;5036749;28;20063;-57
2021/11/05 04:52:47;;;;;;;4.72;1.65;;;;;;;;;;5037895;28;20599;-54
2021/11/05 04:55:14;;;;;;;7.10;1.85;;;;;;;;;;5011378;28;20038;-55
2021/11/05 04:57:42;;;;;;;5.93;1.90;;;;;;;;;;5024122;28;20038;-58
2021/11/05 05:00:09;;;;;;;2.83;1.60;;;;;;;;;;5040232;28;20047;-57
2021/11/05 05:02:36;;;;;;;5.72;2.17;;;;;;;;;;5023216;28;20631;-57
2021/11/05 05:05:03;;;;;;;3.75;1.73;;;;;;;;;;5029757;28;20037;-56
2021/11/05 05:07:29;;;;;;;5.72;1.80;;;;;;;;;;5042335;28;20053;-55
2021/11/05 05:09:56;;;;;;;4.85;1.95;;;;;;;;;;5040044;28;20037;-58
2021/11/05 05:12:22;;;;;;;9.23;2.08;;;;;;;;;;5043187;28;20033;-56
2021/11/05 05:14:50;;;;;;;5.07;2.10;;;;;;;;;;5041648;28;20044;-57
2021/11/05 05:17:17;;;;;;;5.93;1.63;;;;;;;;;;5043544;28;20526;-57
2021/11/05 05:19:43;;;;;;;5.47;1.80;;;;;;;;;;5042001;28;20341;-56
2021/11/05 05:22:10;;;;;;;5.07;1.67;;;;;;;;;;5044973;28;20115;-57
2021/11/05 05:24:37;;;;;;;5.57;1.75;;;;;;;;;;5034330;28;20597;-55
2021/11/05 05:27:03;;;;;;;3.30;1.77;;;;;;;;;;5029227;28;20049;-56
2021/11/05 05:29:30;;;;;;;4.93;1.80;;;;;;;;;;5041362;28;20033;-56
2021/11/05 05:31:58;;;;;;;4.18;1.80;;;;;;;;;;5022539;28;20038;-56
2021/11/05 05:34:25;;;;;;;3.53;1.60;;;;;;;;;;5023799;28;20038;-57
2021/11/05 05:36:51;;;;;;;5.85;1.73;;;;;;;;;;5034821;28;20061;-57
2021/11/05 05:39:18;;;;;;;4.80;1.85;;;;;;;;;;5042240;28;20037;-57
2021/11/05 05:41:44;;;;;;;3.53;1.65;;;;;;;;;;5027081;28;20139;-57
2021/11/05 05:44:10;;;;;;;4.22;1.73;;;;;;;;;;5022359;28;20041;-57
2021/11/05 05:46:37;;;;;;;5.07;1.80;;;;;;;;;;5019576;28;20065;-58
2021/11/05 05:49:05;;;;;;;7.90;2.00;;;;;;;;;;5020326;28;20445;-58
2021/11/05 05:51:33;;;;;;;4.23;1.97;;;;;;;;;;5025515;28;20151;-57
2021/11/05 05:54:00;;;;;;;5.25;1.80;;;;;;;;;;5041668;28;20279;-56
2021/11/05 05:56:26;;;;;;;3.58;1.63;;;;;;;;;;5036493;28;20574;-57
2021/11/05 05:58:53;;;;;;;5.25;1.63;;;;;;;;;;5022430;28;20037;-57
2021/11/05 06:01:19;;;;;;;4.60;1.85;;;;;;;;;;5018232;28;20050;-57
2021/11/05 06:03:46;;;;;;;5.80;2.20;;;;;;;;;;5041392;28;20052;-57
2021/11/05 06:06:14;;;;;;;4.88;1.90;;;;;;;;;;5041496;28;20029;-57
2021/11/05 06:08:40;;;;;;;7.23;2.33;;;;;;;;;;5020504;28;20053;-56
2021/11/05 06:11:07;;;;;;;5.53;2.25;;;;;;;;;;5024009;28;20066;-57
2021/11/05 06:13:34;;;;;;;6.65;2.10;;;;;;;;;;5038168;28;20049;-59
2021/11/05 06:16:00;;;;;;;5.75;2.15;;;;;;;;;;5040404;28;20276;-57
2021/11/05 06:18:27;;;;;;;6.53;2.55;;;;;;;;;;5038134;28;20029;-57
2021/11/05 06:20:53;;;;;;;4.75;2.08;;;;;;;;;;5041649;28;20037;-58
2021/11/05 06:23:21;;;;;;;7.93;2.53;;;;;;;;;;5021418;28;20074;-58
2021/11/05 06:25:48;;;;;;;5.13;1.95;;;;;;;;;;5042809;28;20051;-58
2021/11/05 06:28:15;;;;;;;5.40;2.28;;;;;;;;;;5038425;28;20047;-55
2021/11/05 06:30:41;;;;;;;5.50;2.10;;;;;;;;;;5042584;28;20096;-58
2021/11/05 06:33:08;;;;;;;12.80;2.50;;;;;;;;;;5039186;28;20053;-57
2021/11/05 06:35:34;;;;;;;5.55;1.88;;;;;;;;;;5042680;28;20352;-58
2021/11/05 06:38:01;;;;;;;5.95;2.10;;;;;;;;;;5039464;28;20068;-58
2021/11/05 06:40:29;;;;;;;8.02;2.13;;;;;;;;;;5042385;28;20049;-57
2021/11/05 06:42:55;;;;;;;11.68;2.15;;;;;;;;;;5040520;28;20033;-58
2021/11/05 06:45:24;;;;;;;8.85;2.47;;;;;;;;;;5044993;28;20302;-58
2021/11/05 06:47:51;;;;;;;5.32;2.08;;;;;;;;;;5041262;28;20041;-57
2021/11/05 06:50:17;;;;;;;7.57;2.10;;;;;;;;;;5018292;28;20119;-56
2021/11/05 06:52:44;;;;;;;4.93;2.28;;;;;;;;;;5036273;28;20052;-57
2021/11/05 06:55:10;;;;;;;5.03;2.15;;;;;;;;;;5015786;28;20118;-57
2021/11/05 06:57:38;;;;;;;3.45;1.63;;;;;;;;;;5021083;28;20041;-57
2021/11/05 07:00:05;;;;;;;6.73;2.67;;;;;;;;;;5016954;28;20061;-57
2021/11/05 07:02:32;;;;;;;18.58;7.00;;;;;;;;;;5020734;28;20333;-57
2021/11/05 07:04:59;;;;;;;13.88;5.00;;;;;;;;;;5048176;28;20065;-55
2021/11/05 07:07:26;;;;;;;12.48;4.00;;;;;;;;;;5020634;28;20123;-56
2021/11/05 07:09:52;;;;;;;8.40;3.25;;;;;;;;;;5014595;28;20037;-57
2021/11/05 07:12:20;;;;;;;7.93;2.80;;;;;;;;;;5019852;28;20049;-57
2021/11/05 07:14:47;;;;;;;6.88;2.47;;;;;;;;;;5015437;28;20166;-58
2021/11/05 07:17:14;;;;;;;6.32;2.42;;;;;;;;;;5018678;28;20050;-57
2021/11/05 07:19:46;;;;;;;6.90;2.30;;;;;;;;;;5015464;28;20357;-57
2021/11/05 07:22:14;;;;;;;7.22;2.70;;;;;;;;;;5019129;28;20049;-57
2021/11/05 07:24:41;;;;;;;5.93;2.38;;;;;;;;;;5015264;28;20074;-56
2021/11/05 07:27:08;;;;;;;6.13;2.20;;;;;;;;;;5022381;28;20045;-57
2021/11/05 07:29:34;;;;;;;6.75;2.50;;;;;;;;;;5022128;28;20093;-57
2021/11/05 07:32:07;;;;;;;6.95;2.22;;;;;;;;;;5022146;28;20068;-57
2021/11/05 07:34:33;;;;;;;9.40;2.58;;;;;;;;;;5021317;28;20081;-57
2021/11/05 07:37:01;;;;;;;6.32;2.13;;;;;;;;;;5020093;28;20695;-57
2021/11/05 07:39:28;;;;;;;4.30;1.90;;;;;;;;;;5024144;28;20080;-57
2021/11/05 07:41:55;;;;;;;6.55;2.35;;;;;;;;;;5020027;28;20038;-57
2021/11/05 07:44:21;;;;;;;7.18;2.15;;;;;;;;;;5024259;28;20515;-57
2021/11/05 07:46:48;;;;;;;6.28;2.10;;;;;;;;;;5027425;28;20061;-57
2021/11/05 07:49:16;;;;;;;6.10;2.20;;;;;;;;;;5037145;28;20111;-57
2021/11/05 07:51:43;;;;;;;7.63;2.20;;;;;;;;;;5047080;28;20040;-57
2021/11/05 07:54:09;;;;;;;5.63;2.20;;;;;;;;;;5052855;28;20090;-57
2021/11/05 07:56:36;;;;;;;7.03;2.17;;;;;;;;;;5037682;28;20119;-57
2021/11/05 07:59:03;;;;;;;6.47;2.35;;;;;;;;;;5015513;28;20046;-57
2021/11/05 08:01:30;;;;;;;4.53;2.15;;;;;;;;;;5036495;28;20044;-57
2021/11/05 08:03:58;;;;;;;5.35;2.42;;;;;;;;;;5044143;28;20048;-58
2021/11/05 08:06:25;;;;;;;9.88;2.88;;;;;;;;;;5036860;28;20128;-58
2021/11/05 08:08:52;;;;;;;7.97;3.33;;;;;;;;;;5043086;28;20029;-58
2021/11/05 08:11:18;;;;;;;13.80;5.60;;;;;;;;;;5049999;28;20033;-57
2021/11/05 08:13:46;;;;;;;13.98;5.93;;;;;;;;;;5056340;28;20037;-57
2021/11/05 08:16:12;;;;;;;15.70;5.88;;;;;;;;;;5052278;28;20111;-57
2021/11/05 08:18:39;;;;;;;12.60;4.78;;;;;;;;;;5048060;28;20033;-58
2021/11/05 08:21:05;;;;;;;9.93;4.00;;;;;;;;;;5051389;28;20053;-57
2021/11/05 08:23:35;;;;;;;11.70;3.25;;;;;;;;;;5049205;28;20045;-57
2021/11/05 08:26:01;;;;;;;10.25;2.20;;;;;;;;;;5045394;28;20535;-58
2021/11/05 08:28:28;;;;;;;4.88;1.90;;;;;;;;;;5050205;28;20478;-56
2021/11/05 08:30:55;;;;;;;4.70;1.60;;;;;;;;;;5051323;28;20073;-57
2021/11/05 08:33:24;;;;;;;4.85;1.88;;;;;;;;;;5048542;28;20094;-57
2021/11/05 08:35:51;;;;;;;;;;;;;;;;;;5048066;28;20123;-57
2021/11/05 08:38:19;;;;;;;5.82;2.17;;;;;;;;;;5049064;28;19944;-57
2021/11/05 08:40:50;;;;;;;4.80;1.75;;;;;;;;;;5047644;28;20052;-58
2021/11/05 08:43:18;;;;;;;5.05;1.40;;;;;;;;;;5049974;28;20029;-57
2021/11/05 08:45:45;;;;;;;9.20;1.70;;;;;;;;;;5049719;28;20037;-51
2021/11/05 08:48:14;;;;;;;5.07;1.48;;;;;;;;;;5038628;28;20097;-58
2021/11/05 08:50:40;;;;;;;4.60;1.67;;;;;;;;;;5033276;28;20046;-54
2021/11/05 08:53:07;;;;;;;5.13;1.60;;;;;;;;;;5028786;28;20048;-57
2021/11/05 08:55:35;;;;;;;10.07;2.78;;;;;;;;;;5043812;28;20056;-57
2021/11/05 08:58:03;;;;;;;6.70;2.05;;;;;;;;;;5046168;28;20055;-57
2021/11/05 09:00:33;;;;;;;7.72;1.50;;;;;;;;;;5044005;28;20448;-56
2021/11/05 09:03:00;;;;;;;4.03;1.13;;;;;;;;;;5051744;28;20064;-58
2021/11/05 09:05:26;;;;;;;3.97;1.35;;;;;;;;;;5049837;28;20079;-57
2021/11/05 09:07:53;;;;;;;10.32;1.50;;;;;;;;;;5052742;28;20075;-58
2021/11/05 09:10:19;;;;;;;4.93;1.45;;;;;;;;;;5021629;28;20033;-57
2021/11/05 09:12:46;;;;;;;5.55;1.20;;;;;;;;;;5045474;28;20142;-58
2021/11/05 09:15:17;;;;;;;4.85;1.40;;;;;;;;;;5044436;28;20053;-56
2021/11/05 09:17:43;;;;;;;3.92;1.20;;;;;;;;;;5049657;28;20521;-58
2021/11/05 09:20:11;;;;;;;4.53;1.50;;;;;;;;;;5050207;28;20052;-58
2021/11/05 09:22:37;;;;;;;5.32;1.52;;;;;;;;;;5051976;28;20052;-57
2021/11/05 09:25:05;;;;;;;3.03;1.20;;;;;;;;;;5038850;28;20192;-56
2021/11/05 09:27:33;;;;;;;14.50;1.77;;;;;;;;;;5031621;28;20123;-53
2021/11/05 09:29:59;;;;;;;5.55;1.67;;;;;;;;;;5020237;28;20170;-54
2021/11/05 09:32:27;;;;;;;3.58;1.60;;;;;;;;;;5031715;28;20054;-56
2021/11/05 09:34:55;;;;;;;4.28;1.45;;;;;;;;;;5049891;28;20048;-57
2021/11/05 09:37:22;;;;;;;5.80;1.50;;;;;;;;;;5050926;28;20115;-57
2021/11/05 09:39:49;;;;;;;4.63;1.70;;;;;;;;;;5049817;28;20037;-55
2021/11/05 09:42:15;;;;;;;6.93;1.42;;;;;;;;;;5054375;28;20052;-56
2021/11/05 09:44:42;;;;;;;9.23;2.13;;;;;;;;;;5045699;28;20052;-55
2021/11/05 09:47:08;;;;;;;8.30;2.30;;;;;;;;;;5027847;28;20045;-53
2021/11/05 09:49:36;;;;;;;3.75;1.80;;;;;;;;;;5026657;28;20038;-56
2021/11/05 09:52:06;;;;;;;5.95;2.05;;;;;;;;;;5008176;28;20041;-53
2021/11/05 09:54:35;;;;;;;4.03;1.50;;;;;;;;;;5033223;28;20068;-54
2021/11/05 09:57:04;;;;;;;4.15;1.80;;;;;;;;;;5029776;28;20045;-53
2021/11/05 09:59:31;;;;;;;5.30;1.77;;;;;;;;;;5029400;28;20081;-55
2021/11/05 10:01:58;;;;;;;8.27;1.88;;;;;;;;;;5015475;28;20041;-56
2021/11/05 10:04:24;;;;;;;8.77;1.75;;;;;;;;;;5017845;28;20037;-53
2021/11/05 10:07:01;;;;;;;10.52;1.73;;;;;;;;;;5037721;28;20053;-57
2021/11/05 10:09:33;;;;;;;4.82;1.77;;;;;;;;;;5030088;28;20047;-56
2021/11/05 10:12:05;;;;;;;9.85;1.70;;;;;;;;;;5024757;28;20053;-56
2021/11/05 10:14:32;;;;;;;8.18;1.70;;;;;;;;;;5033070;28;20098;-54
2021/11/05 10:17:00;;;;;;;5.47;1.73;;;;;;;;;;5038683;28;20045;-56
2021/11/05 10:19:45;;;;;;;8.10;1.80;;;;;;;;;;5044631;28;20045;-56
2021/11/05 10:22:31;;;;;;;6.40;1.73;;;;;;;;;;5021980;28;20046;-54
2021/11/05 10:25:13;;;;;;;5.90;1.70;;;;;;;;;;5035963;28;20054;-54
2021/11/05 10:27:39;;;;;;;6.00;1.52;;;;;;;;;;5032273;28;20037;-56
2021/11/05 10:30:07;;;;;;;10.20;2.60;;;;;;;;;;5035547;28;20048;-56
2021/11/05 10:32:34;;;;;;;5.22;1.50;;;;;;;;;;5016830;28;20147;-53
2021/11/05 10:35:10;;;;;;;7.45;1.77;;;;;;;;;;5029590;28;20044;-55
2021/11/05 10:37:41;;;;;;;2.72;1.42;;;;;;;;;;5037956;28;20041;-57
2021/11/05 10:40:09;;;;;;;4.38;1.30;;;;;;;;;;5014217;28;20402;-55
2021/11/05 10:42:37;;;;;;;3.88;1.45;;;;;;;;;;5023669;28;20037;-54
2021/11/05 10:45:13;;;;;;;4.75;1.75;;;;;;;;;;5031207;28;20038;-53
2021/11/05 10:47:58;;;;;;;4.88;1.40;;;;;;;;;;5011625;28;20053;-53
2021/11/05 10:50:25;;;;;;;6.20;1.70;;;;;;;;;;5014472;28;20034;-53
2021/11/05 10:53:01;;;;;;;5.40;1.40;;;;;;;;;;5009298;28;20041;-55
2021/11/05 10:55:38;;;;;;;10.68;1.30;;;;;;;;;;5024110;28;20095;-53
2021/11/05 10:58:06;;;;;;;7.60;1.25;;;;;;;;;;5036821;28;20060;-55
2021/11/05 11:00:32;;;;;;;6.65;1.52;;;;;;;;;;5039166;28;20836;-54
2021/11/05 11:03:08;;;;;;;5.53;1.20;;;;;;;;;;5038392;28;20058;-57
2021/11/05 11:05:35;;;;;;;6.55;1.00;;;;;;;;;;5032315;28;20077;-57
2021/11/05 11:08:03;;;;;;;10.38;0.98;;;;;;;;;;5032569;28;20074;-53
2021/11/05 11:10:31;;;;;;;3.83;0.70;;;;;;;;;;5046971;28;20119;-57
2021/11/05 11:13:03;;;;;;;4.50;0.85;;;;;;;;;;5042934;28;20037;-52
2021/11/05 11:15:34;;;;;;;6.13;0.82;;;;;;;;;;5038102;28;20125;-56
2021/11/05 11:18:01;;;;;;;4.88;1.13;;;;;;;;;;5040437;28;20129;-55
2021/11/05 11:20:31;;;;;;;3.15;0.90;;;;;;;;;;5036583;28;20042;-57
2021/11/05 11:22:58;;;;;;;4.82;0.98;;;;;;;;;;5042155;28;20077;-57
2021/11/05 11:25:26;;;;;;;4.80;1.30;;;;;;;;;;5036105;28;20033;-54
2021/11/05 11:27:52;;;;;;;12.17;1.47;;;;;;;;;;5040481;28;20053;-54
2021/11/05 11:30:19;;;;;;;7.80;1.25;;;;;;;;;;5037469;28;20127;-56
2021/11/05 11:32:47;;;;;;;4.18;1.00;;;;;;;;;;5042530;28;20116;-55
2021/11/05 11:35:14;;;;;;;12.88;1.40;;;;;;;;;;5032210;28;20037;-56
2021/11/05 11:37:42;;;;;;;7.78;0.98;;;;;;;;;;5019116;28;20060;-55
2021/11/05 11:40:09;;;;;;;7.55;0.93;;;;;;;;;;5015656;28;20172;-54
2021/11/05 11:42:37;;;;;;;6.05;0.80;;;;;;;;;;5020715;28;20140;-57
2021/11/05 11:45:07;;;;;;;6.35;0.63;;;;;;;;;;5019420;28;20050;-57
2021/11/05 11:47:41;;;;;;;2.22;0.70;;;;;;;;;;5044275;28;20054;-56
2021/11/05 11:50:21;;;;;;;1.20;0.57;;;;;;;;;;5046508;28;20056;-56
2021/11/05 11:53:00;;;;;;;6.32;0.90;;;;;;;;;;5029549;28;20091;-55
2021/11/05 11:55:29;;;;;;;0.80;0.47;;;;;;;;;;5041976;28;20045;-56
2021/11/05 11:58:10;;;;;;;2.97;0.50;;;;;;;;;;5046656;28;20077;-54
2021/11/05 12:00:37;;;;;;;5.32;0.70;;;;;;;;;;5047624;28;20060;-55
2021/11/05 12:03:05;;;;;;;5.50;0.68;;;;;;;;;;5051205;28;20053;-54
2021/11/05 12:05:39;;;;;;;3.58;1.10;;;;;;;;;;5047652;28;20060;-56
2021/11/05 12:08:12;;;;;;;4.35;0.80;;;;;;;;;;5050343;28;20052;-55
2021/11/05 12:10:40;;;;;;;7.72;0.98;;;;;;;;;;5044329;28;20033;-57
2021/11/05 12:13:37;;;;;;;2.85;0.85;;;;;;;;;;5039166;28;20053;-57
2021/11/05 12:16:38;;;;;;;2.13;0.77;;;;;;;;;;5044871;28;20088;-56
2021/11/05 12:19:19;;;;;;;4.85;0.68;;;;;;;;;;4953306;28;20055;-55
2021/11/05 12:22:03;;;;;;;2.75;0.57;;;;;;;;;;4962633;28;20392;-56
2021/11/05 12:24:30;;;;;;;7.82;0.80;;;;;;;;;;5003773;28;20037;-57
2021/11/05 12:27:01;;;;;;;2.30;0.80;;;;;;;;;;5046951;28;20030;-57
2021/11/05 12:29:46;;;;;;;1.17;0.50;;;;;;;;;;5043674;28;20037;-54
2021/11/05 12:32:34;;;;;;;4.20;0.77;;;;;;;;;;5047529;28;20058;-55
2021/11/05 12:35:20;;;;;;;1.63;0.93;;;;;;;;;;5053633;28;20092;-55
2021/11/05 12:37:53;;;;;;;4.65;0.82;;;;;;;;;;5051578;28;20048;-57
2021/11/05 12:40:26;;;;;;;2.20;0.38;;;;;;;;;;5043840;28;20096;-57
2021/11/05 12:42:54;;;;;;;2.65;0.50;;;;;;;;;;5041261;28;20049;-57
2021/11/05 12:45:21;;;;;;;6.97;0.55;;;;;;;;;;5050985;28;20063;-56
2021/11/05 12:47:50;;;;;;;5.03;0.40;;;;;;;;;;5038914;28;20138;-54
2021/11/05 12:50:18;;;;;;;7.15;0.30;;;;;;;;;;5044398;28;20053;-56
2021/11/05 12:52:52;;;;;;;3.42;0.50;;;;;;;;;;5039628;28;20052;-56
2021/11/05 12:55:19;;;;;;;8.85;0.70;;;;;;;;;;5049608;28;20126;-54
2021/11/05 12:57:48;;;;;;;4.28;0.60;;;;;;;;;;5038811;28;20064;-56
2021/11/05 13:00:17;;;;;;;2.55;0.60;;;;;;;;;;5045258;28;20049;-55
2021/11/05 13:02:51;;;;;;;0.43;0.30;;;;;;;;;;5038855;28;20099;-57
2021/11/05 13:05:18;;;;;;;8.60;0.77;;;;;;;;;;5048091;28;20131;-55
2021/11/05 13:07:52;;;;;;;7.72;0.68;;;;;;;;;;5040707;28;20037;-55
2021/11/05 13:10:22;;;;;;;9.18;0.80;;;;;;;;;;5039320;28;20049;-58
2021/11/05 13:12:56;;;;;;;1.50;0.40;;;;;;;;;;5019010;28;20060;-57
2021/11/05 13:15:23;;;;;;;2.55;0.50;;;;;;;;;;5030454;28;20048;-57
2021/11/05 13:17:53;;;;;;;3.65;0.60;;;;;;;;;;5029550;28;20120;-56
2021/11/05 13:20:20;;;;;;;4.65;0.50;;;;;;;;;;5032867;28;20041;-57
2021/11/05 13:22:47;;;;;;;2.03;0.52;;;;;;;;;;5039980;28;20037;-57
2021/11/05 13:25:15;;;;;;;3.50;0.45;;;;;;;;;;5030591;28;20305;-57
2021/11/05 13:27:43;;;;;;;1.90;0.50;;;;;;;;;;5020952;28;20045;-56
2021/11/05 13:30:09;;;;;;;2.05;0.55;;;;;;;;;;5019227;28;20323;-58
2021/11/05 13:32:36;;;;;;;6.10;0.60;;;;;;;;;;5022207;28;20052;-55
2021/11/05 13:35:05;;;;;;;3.33;0.60;;;;;;;;;;5017066;28;20429;-56
2021/11/05 13:37:32;;;;;;;8.63;0.70;;;;;;;;;;5022919;28;20041;-57
2021/11/05 13:39:59;;;;;;;4.65;0.57;;;;;;;;;;5016037;28;20062;-57
2021/11/05 13:42:27;;;;;;;6.03;0.70;;;;;;;;;;5028854;28;20065;-58
2021/11/05 13:45:02;;;;;;;9.38;0.77;;;;;;;;;;5030809;28;20052;-56
2021/11/05 13:47:29;;;;;;;5.93;0.68;;;;;;;;;;5050673;28;20059;-57
2021/11/05 13:49:59;;;;;;;1.77;0.70;;;;;;;;;;5050259;28;20072;-57
2021/11/05 13:52:27;;;;;;;7.22;1.20;;;;;;;;;;5049674;28;20048;-56
2021/11/05 13:54:54;;;;;;;2.47;0.70;;;;;;;;;;5047546;28;20033;-57
2021/11/05 13:57:21;;;;;;;6.93;0.60;;;;;;;;;;5057690;28;20138;-56
2021/11/05 13:59:52;;;;;;;5.57;0.98;;;;;;;;;;5051556;28;20045;-56
2021/11/05 14:02:21;;;;;;;3.47;0.40;;;;;;;;;;5035704;28;20058;-57
2021/11/05 14:04:49;;;;;;;5.75;0.47;;;;;;;;;;5026661;28;20095;-57
2021/11/05 14:07:16;;;;;;;2.35;0.40;;;;;;;;;;5046078;28;20060;-57
2021/11/05 14:09:44;;;;;;;4.10;0.57;;;;;;;;;;5050957;28;20044;-57
2021/11/05 14:12:14;;;;;;;2.28;0.50;;;;;;;;;;5041352;28;20122;-57
2021/11/05 14:14:47;;;;;;;5.10;0.55;;;;;;;;;;5052488;28;20060;-56
2021/11/05 14:17:14;;;;;;;5.60;0.70;;;;;;;;;;5050877;28;20455;-57
2021/11/05 14:19:49;;;;;;;2.05;0.40;;;;;;;;;;5031833;28;20041;-55
2021/11/05 14:22:17;;;;;;;4.82;0.60;;;;;;;;;;5039047;28;20056;-57
2021/11/05 14:24:46;;;;;;;5.07;0.47;;;;;;;;;;5032017;28;20064;-57
2021/11/05 14:27:14;;;;;;;11.73;1.10;;;;;;;;;;5029852;28;20061;-57
2021/11/05 14:29:42;;;;;;;6.85;0.60;;;;;;;;;;5042996;28;20090;-56
2021/11/05 14:32:09;;;;;;;0.98;0.55;;;;;;;;;;5048071;28;20126;-57
2021/11/05 14:34:49;;;;;;;1.50;0.50;;;;;;;;;;5047469;28;20060;-58
2021/11/05 14:37:16;;;;;;;5.63;1.00;;;;;;;;;;5015654;28;20054;-58
2021/11/05 14:39:45;;;;;;;6.93;1.50;;;;;;;;;;5051467;28;20495;-58
2021/11/05 14:42:12;;;;;;;;;;;;;;;;;;5044565;28;20499;-57
2021/11/05 14:44:38;;;;;;;5.15;1.08;;;;;;;;;;5045833;28;19920;-58
2021/11/05 14:47:05;;;;;;;7.55;0.93;;;;;;;;;;5038325;28;20087;-57
2021/11/05 14:49:31;;;;;;;2.85;0.60;;;;;;;;;;5040596;28;20099;-58